»·PEaware :: N5954W KFOT-KOTH

N5954W :: KFOT-KOTH

FLIGHT INFORMATION

Flight Status: Arrived
Operator: Privately registered:
United States
More flights under this callsign
Pilot: Joshua M. (19482)
Aircraft: BEECH AIRCRAFT A90-E90 KING AIR
(BE9L)
More flights by this aircraft type
Origin: KFOT Rohnerville
United States
Destination: KOTH North Bend Mun
United States
More flights between these airports :: More routes between these airports
Route: +FOT V27 OTH
File this flight plan on PilotEdge
Remarks: Outdated NAV Default XPlane
Altitude:
(Current/Filed)
16,000ft
Speed:
(Current/Filed)
240kts
Departed: 10-Aug-18 10:50 AM
Arrived: 10-Aug-18 11:51 AM
Distance/Time
Traveled:
172nm/1:01
Distance/Time
To Go:
Arrived

Flight Plot

Page will automatically refresh every two minutes.

Flight plan parsing failed; only flown route is shown


Map Options




Map Legend


Flown Route
Filed Route
Departure Airport
Arrival Airport
Navaid (VOR, NDB)
Fix

Horizontal Profiles

Position Reports

Time Latitude Longitude Heading Altitude Ground
Speed
10-Aug-18 10:38 40.555688 -124.133011 215 395ft 0kts
10-Aug-18 10:39 40.555688 -124.133011 215 395ft 0kts
10-Aug-18 10:40 40.555688 -124.133011 215 395ft 0kts
10-Aug-18 10:41 40.555688 -124.133011 215 395ft 0kts
10-Aug-18 10:42 40.555688 -124.133011 215 395ft 0kts
10-Aug-18 10:43 40.555688 -124.133011 215 395ft 0kts
10-Aug-18 10:44 40.555688 -124.133011 215 395ft 0kts
10-Aug-18 10:45 40.555688 -124.133011 215 395ft 0kts
10-Aug-18 10:46 40.555688 -124.133011 215 395ft 0kts
10-Aug-18 10:47 40.555688 -124.133011 215 395ft 0kts
10-Aug-18 10:48 40.555648 -124.133049 215 395ft 1kts
10-Aug-18 10:49 40.554642 -124.131916 130 395ft 2kts
10-Aug-18 10:50 40.552952 -124.129908 122 395ft 25kts
10-Aug-18 10:51 40.551197 -124.127922 308 395ft 42kts
10-Aug-18 10:52 40.562643 -124.144773 330 675ft 140kts
10-Aug-18 10:53 40.588791 -124.166811 327 2094ft 148kts
10-Aug-18 10:54 40.618851 -124.191595 327 3673ft 147kts
10-Aug-18 10:55 40.653293 -124.219815 325 5272ft 148kts
10-Aug-18 10:56 40.692436 -124.233958 352 6643ft 160kts
10-Aug-18 10:57 40.735912 -124.234799 352 7833ft 168kts
10-Aug-18 10:58 40.782585 -124.235178 352 8928ft 176kts
10-Aug-18 10:59 40.832020 -124.235483 352 9926ft 185kts
10-Aug-18 11:00 40.883959 -124.235784 352 10838ft 193kts
10-Aug-18 11:01 40.938619 -124.236097 353 11680ft 201kts
10-Aug-18 11:02 40.995089 -124.236399 354 12493ft 206kts
10-Aug-18 11:03 41.050695 -124.236706 354 13239ft 208kts
10-Aug-18 11:04 41.104958 -124.237013 354 13891ft 210kts
10-Aug-18 11:05 41.162477 -124.237337 354 14474ft 212kts
10-Aug-18 11:06 41.220512 -124.237666 354 15004ft 214kts
10-Aug-18 11:07 41.278834 -124.237997 354 15486ft 215kts
10-Aug-18 11:08 41.337334 -124.238330 354 15923ft 217kts
10-Aug-18 11:09 41.396113 -124.238680 354 15999ft 230kts
10-Aug-18 11:10 41.459222 -124.239033 354 15999ft 242kts
10-Aug-18 11:11 41.524881 -124.239395 354 15999ft 247kts
10-Aug-18 11:12 41.591208 -124.239772 355 15999ft 248kts
10-Aug-18 11:13 41.653284 -124.240129 355 16000ft 248kts
10-Aug-18 11:14 41.718637 -124.240505 355 16000ft 248kts
10-Aug-18 11:15 41.782975 -124.240597 357 16001ft 249kts
10-Aug-18 11:16 41.846238 -124.237976 357 16001ft 250kts
10-Aug-18 11:17 41.910047 -124.235226 357 16002ft 250kts
10-Aug-18 11:18 41.970462 -124.232612 357 16002ft 250kts
10-Aug-18 11:19 42.027612 -124.230134 357 16003ft 250kts
10-Aug-18 11:20 42.086066 -124.227593 357 16003ft 250kts
10-Aug-18 11:21 42.145627 -124.225003 357 15843ft 250kts
10-Aug-18 11:22 42.208228 -124.222275 357 15605ft 249kts
10-Aug-18 11:23 42.266784 -124.219716 357 15348ft 247kts
10-Aug-18 11:24 42.328183 -124.217024 357 14888ft 246kts
10-Aug-18 11:25 42.386877 -124.214451 357 14347ft 244kts
10-Aug-18 11:26 42.445540 -124.211874 357 13855ft 242kts
10-Aug-18 11:27 42.502461 -124.209368 357 13417ft 240kts
10-Aug-18 11:28 42.555503 -124.207030 357 13041ft 239kts
10-Aug-18 11:29 42.611127 -124.204570 357 12431ft 237kts
10-Aug-18 11:30 42.665086 -124.202173 357 11814ft 233kts
10-Aug-18 11:31 42.719502 -124.200317 344 11249ft 224kts
10-Aug-18 11:32 42.771338 -124.223004 334 10710ft 214kts
10-Aug-18 11:33 42.823029 -124.245894 334 10109ft 208kts
10-Aug-18 11:34 42.871832 -124.267870 334 9499ft 222kts
10-Aug-18 11:35 42.926393 -124.293777 334 8964ft 232kts
10-Aug-18 11:36 42.977838 -124.318001 335 7489ft 192kts
10-Aug-18 11:37 43.017405 -124.338781 334 5195ft 180kts
10-Aug-18 11:38 43.057411 -124.362330 334 4012ft 162kts
10-Aug-18 11:39 43.089980 -124.381607 334 3998ft 125kts
10-Aug-18 11:40 43.119916 -124.400956 324 4000ft 125kts
10-Aug-18 11:41 43.149326 -124.428160 324 4007ft 143kts
10-Aug-18 11:42 43.185524 -124.461937 324 4001ft 170kts
10-Aug-18 11:43 43.225025 -124.498911 325 4000ft 176kts
10-Aug-18 11:44 43.268603 -124.481436 25 3296ft 182kts
10-Aug-18 11:45 43.310034 -124.452085 25 2995ft 155kts
10-Aug-18 11:46 43.344948 -124.426953 28 2835ft 145kts
10-Aug-18 11:47 43.362668 -124.387316 58 2139ft 121kts
10-Aug-18 11:48 43.376248 -124.354234 58 1582ft 94kts
10-Aug-18 11:49 43.387747 -124.326386 58 1131ft 91kts
10-Aug-18 11:50 43.398827 -124.299371 57 693ft 91kts
10-Aug-18 11:51 43.409888 -124.272844 60 236ft 89kts
10-Aug-18 11:52 43.418153 -124.251597 132 20ft 14kts

Navigation Log

Ident Type
Flight plan parsing failed, navigation log unavailable